This is the latest recevied weather packets stored in our database for station/object EA3KZ-1. If no packets are shown the sender has not sent any weather packets the latest 10 day(s).
| Time | Temp. | Humidity | Pressure | Rain* | Wind** | Luminosity | Snow |
|---|---|---|---|---|---|---|---|
| 1787987765 | 22.78° C | 51% | 1015.5 hPa | 0 mm | - | - | - |
| 1787987162 | 22.78° C | 50% | 1015.4 hPa | 0 mm | - | - | - |
| 1787986560 | 22.78° C | 51% | 1015.4 hPa | 0 mm | - | - | - |
| 1787985957 | 21.67° C | 53% | 1015.2 hPa | 0 mm | - | - | - |
| 1787985354 | 21.67° C | 54% | 1015.4 hPa | 0 mm | - | - | - |
| 1787984752 | 21.67° C | 53% | 1015.2 hPa | 0 mm | - | - | - |
| 1787984149 | 21.67° C | 54% | 1015.4 hPa | 0 mm | - | - | - |
| 1787983547 | 21.67° C | 54% | 1015.5 hPa | 0 mm | - | - | - |
| 1787982944 | 21.11° C | 54% | 1015.2 hPa | 0 mm | - | - | - |
| 1787982341 | 20.56° C | 56% | 1015.2 hPa | 0 mm | - | - | - |
| 1787981739 | 19.44° C | 59% | 1015.2 hPa | 0 mm | - | - | - |
| 1787981136 | 19.44° C | 60% | 1015.1 hPa | 0 mm | - | - | - |
| 1787980533 | 20° C | 58% | 1014.9 hPa | 0 mm | - | - | - |
| 1787979931 | 20° C | 57% | 1014.7 hPa | 0 mm | - | - | - |
| 1787979328 | 20° C | 58% | 1014.8 hPa | 0 mm | - | - | - |
| 1787978726 | 19.44° C | 59% | 1014.9 hPa | 0 mm | - | - | - |
| 1787978123 | 19.44° C | 59% | 1014.7 hPa | 0 mm | - | - | - |
| 1787977520 | 19.44° C | 59% | 1014.7 hPa | 0 mm | - | - | - |
| 1787976918 | 19.44° C | 59% | 1014.8 hPa | 0 mm | - | - | - |
| 1787976315 | 19.44° C | 59% | 1014.7 hPa | 0 mm | - | - | - |
| 1787975773 | 19.44° C | 59% | 1014.9 hPa | 0 mm | - | - | - |
| 1787975170 | 19.44° C | 59% | 1014.6 hPa | 0 mm | - | - | - |
| 1787974568 | 19.44° C | 59% | 1014.7 hPa | 0 mm | - | - | - |
| 1787973965 | 20° C | 58% | 1014.6 hPa | 0 mm | - | - | - |
| 1787973363 | 20.56° C | 58% | 1014.8 hPa | 0 mm | - | - | - |
* Rain latest hour (hover to see other rain measurements)
** Current wind speed in m/s (hover to see current wind gust speed)